Time,TemperatureF,DewpointF,PressureIn,WindDirection,WindDirectionDegrees,WindSpeedMPH,WindSpeedGustMPH,Humidity,HourlyPrecipIn,Conditions,Clouds,dailyrainin,SoftwareType,DateUTC
2013-02-23 00:00:00,34.1,28.6,30.06,SSE,157,8.0,13.0,80,0.00,,---,0.00,VWS V13.01,2013-02-23 05:00:00,
2013-02-23 00:05:00,34.1,28.6,30.05,ESE,117,4.0,13.0,80,0.00,,---,0.00,VWS V13.01,2013-02-23 05:05:00,
2013-02-23 00:11:00,34.1,28.6,30.05,ENE,57,1.0,13.0,80,0.00,,---,0.00,VWS V13.01,2013-02-23 05:11:00,
2013-02-23 00:16:00,34.1,28.6,30.05,SSE,150,4.0,13.0,80,0.00,,---,0.00,VWS V13.01,2013-02-23 05:16:00,
2013-02-23 00:21:00,34.0,28.5,30.05,SSE,152,4.0,13.0,80,0.00,,---,0.00,VWS V13.01,2013-02-23 05:21:00,
2013-02-23 00:26:00,34.0,28.5,30.05,ESE,109,3.0,13.0,80,0.00,,---,0.00,VWS V13.01,2013-02-23 05:26:00,
2013-02-23 00:31:00,34.0,28.8,30.04,East,83,1.0,5.0,81,0.00,,---,0.00,VWS V13.01,2013-02-23 05:31:00,
2013-02-23 00:36:00,34.0,28.8,30.04,ESE,121,7.0,9.0,81,0.00,,---,0.00,VWS V13.01,2013-02-23 05:36:00,
2013-02-23 00:41:00,34.0,28.8,30.04,SSE,155,6.0,9.0,81,0.00,,---,0.00,VWS V13.01,2013-02-23 05:41:00,
2013-02-23 00:46:00,34.0,28.8,30.04,ESE,123,4.0,9.0,81,0.00,,---,0.00,VWS V13.01,2013-02-23 05:46:00,
2013-02-23 00:51:00,34.0,28.8,30.04,East,98,6.0,9.0,81,0.00,,---,0.00,VWS V13.01,2013-02-23 05:51:00,
2013-02-23 00:56:00,34.0,28.8,30.04,SE,136,1.0,9.0,81,0.00,,---,0.00,VWS V13.01,2013-02-23 05:56:00,
2013-02-23 01:01:00,33.9,28.7,30.04,SSE,150,1.0,7.0,81,0.00,,---,0.00,VWS V13.01,2013-02-23 06:01:00,
2013-02-23 01:06:00,33.9,28.7,30.04,ESE,123,3.0,7.0,81,0.00,,---,0.00,VWS V13.01,2013-02-23 06:06:00,
2013-02-23 01:11:00,33.9,29.0,30.04,SE,134,4.0,8.0,82,0.00,,---,0.00,VWS V13.01,2013-02-23 06:11:00,
2013-02-23 01:16:00,33.8,28.9,30.03,SE,125,5.0,8.0,82,0.00,,---,0.00,VWS V13.01,2013-02-23 06:16:00,
2013-02-23 01:21:00,33.9,29.0,30.04,ESE,107,2.0,8.0,82,0.00,,---,0.00,VWS V13.01,2013-02-23 06:21:00,
2013-02-23 01:26:00,33.9,29.0,30.03,ESE,113,0.0,8.0,82,0.00,,---,0.00,VWS V13.01,2013-02-23 06:26:00,
2013-02-23 01:31:00,33.9,29.0,30.03,ESE,107,3.0,9.0,82,0.00,,---,0.00,VWS V13.01,2013-02-23 06:31:00,
2013-02-23 01:36:00,34.0,29.1,30.03,East,94,2.0,11.0,82,0.00,,---,0.00,VWS V13.01,2013-02-23 06:36:00,
2013-02-23 01:41:00,34.1,29.2,30.03,SSE,157,4.0,11.0,82,0.00,,---,0.00,VWS V13.01,2013-02-23 06:41:00,
2013-02-23 01:46:00,34.1,29.2,30.03,SE,136,9.0,13.0,82,0.00,,---,0.00,VWS V13.01,2013-02-23 06:46:00,
2013-02-23 01:51:00,34.3,29.4,30.03,SSE,165,2.0,13.0,82,0.00,,---,0.00,VWS V13.01,2013-02-23 06:51:00,
2013-02-23 01:56:00,34.3,29.4,30.02,SE,131,10.0,13.0,82,0.00,,---,0.00,VWS V13.01,2013-02-23 06:56:00,
2013-02-23 02:01:00,34.4,29.5,30.02,SE,128,6.0,10.0,82,0.00,,---,0.00,VWS V13.01,2013-02-23 07:01:00,
2013-02-23 02:06:00,34.4,29.5,30.02,SE,126,1.0,11.0,82,0.00,,---,0.00,VWS V13.01,2013-02-23 07:06:00,
2013-02-23 02:11:00,34.5,29.6,30.02,SSE,149,7.0,11.0,82,0.00,,---,0.00,VWS V13.01,2013-02-23 07:11:00,
2013-02-23 02:16:00,34.4,29.5,30.02,SSE,148,2.0,11.0,82,0.00,,---,0.00,VWS V13.01,2013-02-23 07:16:00,
2013-02-23 02:21:00,34.4,29.5,30.01,SSE,161,4.0,11.0,82,0.00,,---,0.00,VWS V13.01,2013-02-23 07:21:00,
2013-02-23 02:26:00,34.5,29.9,30.02,SE,128,4.0,11.0,83,0.00,,---,0.00,VWS V13.01,2013-02-23 07:26:00,
2013-02-23 02:31:00,34.5,29.6,30.02,SSE,155,3.0,3.0,82,0.00,,---,0.00,VWS V13.01,2013-02-23 07:31:00,
2013-02-23 02:36:00,34.7,29.8,30.02,East,87,0.0,7.0,82,0.00,,---,0.00,VWS V13.01,2013-02-23 07:36:00,
2013-02-23 02:41:00,34.8,29.9,30.02,ESE,111,5.0,7.0,82,0.00,,---,0.00,VWS V13.01,2013-02-23 07:41:00,
2013-02-23 02:46:00,34.9,30.0,30.01,East,86,5.0,7.0,82,0.00,,---,0.00,VWS V13.01,2013-02-23 07:46:00,
2013-02-23 02:51:00,35.1,30.2,30.01,SE,134,1.0,7.0,82,0.00,,---,0.00,VWS V13.01,2013-02-23 07:51:00,
2013-02-23 02:56:00,35.1,30.2,30.01,South,172,0.0,9.0,82,0.00,,---,0.00,VWS V13.01,2013-02-23 07:56:00,
2013-02-23 03:01:00,35.1,30.2,30.00,SE,132,1.0,7.0,82,0.00,,---,0.00,VWS V13.01,2013-02-23 08:01:00,
2013-02-23 03:06:00,35.1,30.2,30.00,ESE,113,1.0,7.0,82,0.00,,---,0.00,VWS V13.01,2013-02-23 08:06:00,
2013-02-23 03:11:00,35.1,30.2,29.99,ESE,123,3.0,7.0,82,0.00,,---,0.00,VWS V13.01,2013-02-23 08:11:00,
2013-02-23 03:16:00,35.2,30.3,29.99,SE,133,2.0,7.0,82,0.00,,---,0.00,VWS V13.01,2013-02-23 08:16:00,
2013-02-23 03:21:00,35.2,30.3,29.99,SE,140,5.0,9.0,82,0.00,,---,0.00,VWS V13.01,2013-02-23 08:21:00,
2013-02-23 03:26:00,35.3,30.4,29.98,ESE,117,4.0,10.0,82,0.00,,---,0.00,VWS V13.01,2013-02-23 08:26:00,
2013-02-23 03:31:00,35.3,30.4,29.98,SE,137,9.0,11.0,82,0.00,,---,0.00,VWS V13.01,2013-02-23 08:31:00,
2013-02-23 03:36:00,35.3,30.4,29.98,SE,135,4.0,11.0,82,0.00,,---,0.00,VWS V13.01,2013-02-23 08:36:00,
2013-02-23 03:41:00,35.3,30.4,29.98,SE,140,2.0,11.0,82,0.00,,---,0.00,VWS V13.01,2013-02-23 08:41:00,
2013-02-23 03:46:00,35.3,30.4,29.97,SSE,147,4.0,11.0,82,0.00,,---,0.00,VWS V13.01,2013-02-23 08:46:00,
2013-02-23 03:51:00,35.2,30.3,29.97,ESE,118,4.0,11.0,82,0.00,,---,0.00,VWS V13.01,2013-02-23 08:51:00,
2013-02-23 03:56:00,35.2,30.3,29.98,SE,140,4.0,11.0,82,0.00,,---,0.00,VWS V13.01,2013-02-23 08:56:00,
2013-02-23 04:01:00,35.2,30.3,29.97,SE,144,3.0,5.0,82,0.00,,---,0.00,VWS V13.01,2013-02-23 09:01:00,
2013-02-23 04:06:00,35.2,30.6,29.97,SE,138,2.0,8.0,83,0.00,,---,0.00,VWS V13.01,2013-02-23 09:06:00,
2013-02-23 04:11:00,35.2,30.6,29.98,SE,136,2.0,8.0,83,0.00,,---,0.00,VWS V13.01,2013-02-23 09:11:00,
2013-02-23 04:16:00,35.3,30.7,29.97,SE,144,6.0,8.0,83,0.00,,---,0.00,VWS V13.01,2013-02-23 09:16:00,
2013-02-23 04:21:00,35.4,30.8,29.98,SE,142,5.0,8.0,83,0.00,,---,0.00,VWS V13.01,2013-02-23 09:21:00,
2013-02-23 04:26:00,35.6,31.0,29.97,SE,142,3.0,8.0,83,0.00,,---,0.00,VWS V13.01,2013-02-23 09:26:00,
2013-02-23 04:31:00,35.7,31.0,29.98,SE,132,0.0,3.0,83,0.00,,---,0.00,VWS V13.01,2013-02-23 09:31:00,
2013-02-23 04:36:00,35.8,31.1,29.98,SSE,155,1.0,5.0,83,0.00,,---,0.00,VWS V13.01,2013-02-23 09:36:00,
2013-02-23 04:41:00,35.9,31.0,29.98,SE,138,5.0,5.0,82,0.00,,---,0.00,VWS V13.01,2013-02-23 09:41:00,
2013-02-23 04:46:00,36.0,31.0,29.98,SE,146,1.0,5.0,82,0.00,,---,0.00,VWS V13.01,2013-02-23 09:46:00,
2013-02-23 04:51:00,36.1,31.1,29.98,SE,143,4.0,7.0,82,0.00,,---,0.00,VWS V13.01,2013-02-23 09:51:00,
2013-02-23 04:56:00,36.3,31.6,29.98,SE,146,5.0,7.0,83,0.00,,---,0.00,VWS V13.01,2013-02-23 09:56:00,
2013-02-23 05:01:00,36.4,31.7,29.98,SSE,149,1.0,5.0,83,0.00,,---,0.00,VWS V13.01,2013-02-23 10:01:00,
2013-02-23 05:06:00,36.6,31.6,29.98,SE,138,3.0,5.0,82,0.00,,---,0.00,VWS V13.01,2013-02-23 10:06:00,
2013-02-23 05:11:00,36.7,31.7,29.98,SSE,147,5.0,7.0,82,0.00,,---,0.00,VWS V13.01,2013-02-23 10:11:00,
2013-02-23 05:16:00,36.8,31.8,29.98,SE,145,5.0,8.0,82,0.00,,---,0.00,VWS V13.01,2013-02-23 10:16:00,
2013-02-23 05:21:00,36.8,31.8,29.97,ESE,103,4.0,8.0,82,0.00,,---,0.00,VWS V13.01,2013-02-23 10:21:00,
2013-02-23 05:26:00,36.9,31.6,29.98,SSE,163,2.0,8.0,81,0.00,,---,0.00,VWS V13.01,2013-02-23 10:26:00,
2013-02-23 05:31:00,37.0,32.0,29.98,SE,126,3.0,6.0,82,0.00,,---,0.00,VWS V13.01,2013-02-23 10:31:00,
2013-02-23 05:36:00,37.1,32.1,29.98,SE,135,0.0,6.0,82,0.00,,---,0.00,VWS V13.01,2013-02-23 10:36:00,
2013-02-23 05:41:00,37.1,32.1,29.98,ESE,111,2.0,6.0,82,0.00,,---,0.00,VWS V13.01,2013-02-23 10:41:00,
2013-02-23 05:46:00,37.2,32.2,29.98,SE,142,2.0,8.0,82,0.00,,---,0.00,VWS V13.01,2013-02-23 10:46:00,
2013-02-23 05:51:00,37.3,32.3,29.98,SE,143,6.0,8.0,82,0.00,,---,0.00,VWS V13.01,2013-02-23 10:51:00,
2013-02-23 05:56:00,37.4,32.4,29.98,SE,126,2.0,9.0,82,0.00,,---,0.00,VWS V13.01,2013-02-23 10:56:00,
2013-02-23 06:01:00,37.5,32.5,29.98,SSE,147,1.0,6.0,82,0.00,,---,0.00,VWS V13.01,2013-02-23 11:01:00,
2013-02-23 06:06:00,37.5,32.5,29.98,SE,137,2.0,6.0,82,0.00,,---,0.00,VWS V13.01,2013-02-23 11:06:00,
2013-02-23 06:11:00,37.6,32.6,29.98,SE,126,1.0,6.0,82,0.00,,---,0.00,VWS V13.01,2013-02-23 11:11:00,
2013-02-23 06:16:00,37.7,32.7,29.98,SE,141,0.0,6.0,82,0.00,,---,0.00,VWS V13.01,2013-02-23 11:16:00,
2013-02-23 06:21:00,37.8,32.8,29.98,SE,146,0.0,6.0,82,0.00,,---,0.00,VWS V13.01,2013-02-23 11:21:00,
2013-02-23 06:26:00,37.9,33.2,29.97,SE,130,4.0,6.0,83,0.00,,---,0.00,VWS V13.01,2013-02-23 11:26:00,
2013-02-23 06:31:00,38.1,33.4,29.97,SE,136,2.0,8.0,83,0.00,,---,0.00,VWS V13.01,2013-02-23 11:31:00,
2013-02-23 06:36:00,38.2,33.2,29.97,SE,141,4.0,8.0,82,0.00,,---,0.00,VWS V13.01,2013-02-23 11:36:00,
2013-02-23 06:41:00,38.3,33.3,29.97,SE,141,1.0,8.0,82,0.00,,---,0.00,VWS V13.01,2013-02-23 11:41:00,
2013-02-23 06:46:00,38.4,33.4,29.97,SE,140,1.0,8.0,82,0.00,,---,0.00,VWS V13.01,2013-02-23 11:46:00,
2013-02-23 06:51:00,38.5,33.5,29.97,SE,141,0.0,8.0,82,0.00,,---,0.00,VWS V13.01,2013-02-23 11:51:00,
2013-02-23 06:56:00,38.6,33.6,29.97,SE,145,4.0,8.0,82,0.00,,---,0.00,VWS V13.01,2013-02-23 11:56:00,
2013-02-23 07:01:00,38.7,33.7,29.97,SE,142,3.0,3.0,82,0.00,,---,0.00,VWS V13.01,2013-02-23 12:01:00,
2013-02-23 07:06:00,38.8,33.8,29.96,SE,127,3.0,3.0,82,0.00,,---,0.00,VWS V13.01,2013-02-23 12:06:00,
2013-02-23 07:11:00,38.8,33.8,29.96,SE,146,3.0,7.0,82,0.00,,---,0.00,VWS V13.01,2013-02-23 12:11:00,
2013-02-23 07:16:00,38.9,33.9,29.96,SE,130,2.0,7.0,82,0.00,,---,0.00,VWS V13.01,2013-02-23 12:16:00,
2013-02-23 07:21:00,39.0,34.0,29.96,SE,140,0.0,7.0,82,0.00,,---,0.00,VWS V13.01,2013-02-23 12:21:00,
2013-02-23 07:27:00,39.0,34.0,29.97,SSE,147,0.0,7.0,82,0.00,,---,0.00,VWS V13.01,2013-02-23 12:27:00,
2013-02-23 07:32:00,39.1,34.1,29.96,SE,134,0.0,2.0,82,0.00,,---,0.00,VWS V13.01,2013-02-23 12:32:00,
2013-02-23 07:37:00,39.2,34.2,29.96,SE,142,0.0,3.0,82,0.00,,---,0.00,VWS V13.01,2013-02-23 12:37:00,
2013-02-23 07:42:00,39.2,34.2,29.96,SE,140,1.0,3.0,82,0.00,,---,0.00,VWS V13.01,2013-02-23 12:42:00,
2013-02-23 07:47:00,39.3,34.3,29.96,SE,138,2.0,5.0,82,0.00,,---,0.00,VWS V13.01,2013-02-23 12:47:00,
2013-02-23 07:52:00,39.4,34.4,29.96,ESE,121,1.0,5.0,82,0.00,,---,0.00,VWS V13.01,2013-02-23 12:52:00,
2013-02-23 07:57:00,39.5,34.5,29.96,SE,135,1.0,5.0,82,0.00,,---,0.00,VWS V13.01,2013-02-23 12:57:00,
2013-02-23 08:02:00,39.6,34.3,29.95,SE,130,3.0,4.0,81,0.00,,---,0.00,VWS V13.01,2013-02-23 13:02:00,
2013-02-23 08:07:00,39.6,34.3,29.95,SSE,150,4.0,5.0,81,0.00,,---,0.00,VWS V13.01,2013-02-23 13:07:00,
2013-02-23 08:12:00,39.8,34.5,29.95,South,171,0.0,5.0,81,0.00,,---,0.00,VWS V13.01,2013-02-23 13:12:00,
2013-02-23 08:17:00,39.9,34.5,29.95,SSE,151,1.0,5.0,81,0.00,,---,0.00,VWS V13.01,2013-02-23 13:17:00,
2013-02-23 08:22:00,40.0,34.7,29.95,SE,146,3.0,5.0,81,0.00,,---,0.00,VWS V13.01,2013-02-23 13:22:00,
2013-02-23 08:27:00,40.2,34.8,29.95,SE,142,0.0,5.0,81,0.00,,---,0.00,VWS V13.01,2013-02-23 13:27:00,
2013-02-23 08:32:00,40.4,35.0,29.95,South,169,1.0,2.0,81,0.00,,---,0.00,VWS V13.01,2013-02-23 13:32:00,
2013-02-23 08:37:00,40.5,35.1,29.95,South,173,0.0,2.0,81,0.00,,---,0.00,VWS V13.01,2013-02-23 13:37:00,
2013-02-23 08:42:00,40.7,35.3,29.95,South,175,0.0,2.0,81,0.00,,---,0.00,VWS V13.01,2013-02-23 13:42:00,
2013-02-23 08:47:00,40.6,34.9,29.95,South,184,0.0,2.0,80,0.00,,---,0.00,VWS V13.01,2013-02-23 13:47:00,
2013-02-23 08:52:00,40.6,34.9,29.96,South,184,0.0,2.0,80,0.00,,---,0.00,VWS V13.01,2013-02-23 13:52:00,
2013-02-23 08:57:00,40.6,34.9,29.95,South,184,0.0,2.0,80,0.00,,---,0.00,VWS V13.01,2013-02-23 13:57:00,
2013-02-23 09:02:00,40.5,34.8,29.96,SSW,194,1.0,2.0,80,0.00,,---,0.00,VWS V13.01,2013-02-23 14:02:00,
2013-02-23 09:07:00,40.4,34.7,29.96,SSW,194,0.0,2.0,80,0.00,,---,0.00,VWS V13.01,2013-02-23 14:07:00,
2013-02-23 09:12:00,40.4,34.7,29.96,SW,226,0.0,2.0,80,0.00,,---,0.00,VWS V13.01,2013-02-23 14:12:00,
2013-02-23 09:17:00,40.2,34.5,29.96,SW,227,0.0,2.0,80,0.00,,---,0.00,VWS V13.01,2013-02-23 14:17:00,
2013-02-23 09:22:00,40.1,34.4,29.97,NNW,328,4.0,4.0,80,0.00,,---,0.00,VWS V13.01,2013-02-23 14:22:00,
2013-02-23 09:27:00,39.8,34.5,29.97,WNW,298,1.0,4.0,81,0.00,,---,0.00,VWS V13.01,2013-02-23 14:27:00,
2013-02-23 09:32:00,39.7,34.4,29.97,NW,304,1.0,3.0,81,0.00,,---,0.00,VWS V13.01,2013-02-23 14:32:00,
2013-02-23 09:37:00,39.6,34.6,29.97,WSW,247,0.0,4.0,82,0.00,,---,0.00,VWS V13.01,2013-02-23 14:37:00,
2013-02-23 09:42:00,39.7,34.7,29.97,WSW,243,4.0,6.0,82,0.00,,---,0.00,VWS V13.01,2013-02-23 14:42:00,
2013-02-23 09:47:00,39.6,34.6,29.98,WNW,288,4.0,6.0,82,0.00,,---,0.00,VWS V13.01,2013-02-23 14:47:00,
2013-02-23 09:52:00,39.6,34.6,29.98,WSW,242,2.0,7.0,82,0.00,,---,0.00,VWS V13.01,2013-02-23 14:52:00,
2013-02-23 09:57:00,39.5,34.5,29.98,SW,234,5.0,7.0,82,0.00,,---,0.00,VWS V13.01,2013-02-23 14:57:00,
2013-02-23 10:02:00,39.5,34.5,29.97,SW,236,1.0,5.0,82,0.00,,---,0.00,VWS V13.01,2013-02-23 15:02:00,
2013-02-23 10:07:00,39.6,34.6,29.97,WSW,254,1.0,5.0,82,0.00,,---,0.00,VWS V13.01,2013-02-23 15:07:00,
2013-02-23 10:12:00,39.7,34.7,29.97,WSW,254,2.0,5.0,82,0.00,,---,0.00,VWS V13.01,2013-02-23 15:12:00,
2013-02-23 10:17:00,39.8,34.8,29.97,WSW,254,3.0,5.0,82,0.00,,---,0.00,VWS V13.01,2013-02-23 15:17:00,
2013-02-23 10:22:00,39.9,34.9,29.97,SW,236,2.0,5.0,82,0.00,,---,0.00,VWS V13.01,2013-02-23 15:22:00,
2013-02-23 10:27:00,40.0,35.0,29.97,SW,236,1.0,5.0,82,0.00,,---,0.00,VWS V13.01,2013-02-23 15:27:00,
2013-02-23 10:32:00,40.0,35.0,29.97,West,265,2.0,3.0,82,0.00,,---,0.00,VWS V13.01,2013-02-23 15:32:00,
2013-02-23 10:37:00,40.1,34.8,29.97,WSW,250,1.0,5.0,81,0.00,,---,0.00,VWS V13.01,2013-02-23 15:37:00,
2013-02-23 10:42:00,40.0,34.7,29.97,WSW,242,3.0,5.0,81,0.00,,---,0.00,VWS V13.01,2013-02-23 15:42:00,
2013-02-23 10:47:00,39.9,34.5,29.97,SW,223,4.0,6.0,81,0.00,,---,0.00,VWS V13.01,2013-02-23 15:47:00,
2013-02-23 10:52:00,39.8,34.8,29.97,WSW,248,2.0,6.0,82,0.00,,---,0.00,VWS V13.01,2013-02-23 15:52:00,
2013-02-23 10:57:00,39.8,34.5,29.97,West,274,1.0,6.0,81,0.00,,---,0.00,VWS V13.01,2013-02-23 15:57:00,
2013-02-23 11:02:00,39.8,34.8,29.97,West,275,3.0,4.0,82,0.00,,---,0.00,VWS V13.01,2013-02-23 16:02:00,
2013-02-23 11:07:00,39.8,34.5,29.97,SW,232,1.0,4.0,81,0.00,,---,0.00,VWS V13.01,2013-02-23 16:07:00,
2013-02-23 11:12:00,39.9,34.5,29.97,SW,236,1.0,4.0,81,0.00,,---,0.00,VWS V13.01,2013-02-23 16:12:00,
2013-02-23 11:17:00,39.9,34.5,29.97,WNW,291,4.0,4.0,81,0.00,,---,0.00,VWS V13.01,2013-02-23 16:17:00,
2013-02-23 11:22:00,39.9,34.5,29.97,WNW,286,1.0,4.0,81,0.00,,---,0.00,VWS V13.01,2013-02-23 16:22:00,
2013-02-23 11:27:00,40.0,34.7,29.97,WNW,289,0.0,4.0,81,0.00,,---,0.00,VWS V13.01,2013-02-23 16:27:00,
2013-02-23 11:32:00,40.0,34.7,29.97,NW,309,2.0,3.0,81,0.00,,---,0.00,VWS V13.01,2013-02-23 16:32:00,
2013-02-23 11:37:00,39.9,34.5,29.97,NW,309,1.0,3.0,81,0.00,,---,0.00,VWS V13.01,2013-02-23 16:37:00,
2013-02-23 11:42:00,39.9,34.5,29.97,NW,309,0.0,3.0,81,0.00,,---,0.00,VWS V13.01,2013-02-23 16:42:00,
2013-02-23 11:47:00,40.0,34.7,29.97,NW,309,0.0,3.0,81,0.00,,---,0.00,VWS V13.01,2013-02-23 16:47:00,
2013-02-23 11:52:00,40.1,34.8,29.97,NW,309,0.0,3.0,81,0.00,,---,0.00,VWS V13.01,2013-02-23 16:52:00,
2013-02-23 11:57:00,40.4,34.7,29.96,WNW,287,0.0,3.0,80,0.00,,---,0.00,VWS V13.01,2013-02-23 16:57:00,
2013-02-23 12:02:00,40.7,35.3,29.96,WNW,287,0.0,1.0,81,0.00,,---,0.00,VWS V13.01,2013-02-23 17:02:00,
2013-02-23 12:07:00,41.1,35.4,29.95,WNW,287,0.0,1.0,80,0.00,,---,0.00,VWS V13.01,2013-02-23 17:07:00,
2013-02-23 12:12:00,41.5,35.5,29.95,WNW,287,0.0,2.0,79,0.00,,---,0.00,VWS V13.01,2013-02-23 17:12:00,
2013-02-23 12:17:00,42.0,35.7,29.94,WNW,287,0.0,2.0,78,0.00,,---,0.00,VWS V13.01,2013-02-23 17:17:00,
2013-02-23 12:22:00,42.4,36.0,29.95,WSW,256,3.0,3.0,78,0.00,,---,0.00,VWS V13.01,2013-02-23 17:22:00,
2013-02-23 12:27:00,42.7,36.0,29.94,South,180,1.0,5.0,77,0.00,,---,0.00,VWS V13.01,2013-02-23 17:27:00,
2013-02-23 12:32:00,42.7,36.0,29.94,South,173,1.0,3.0,77,0.00,,---,0.00,VWS V13.01,2013-02-23 17:32:00,
2013-02-23 12:37:00,42.9,36.5,29.94,South,175,1.0,3.0,78,0.00,,---,0.00,VWS V13.01,2013-02-23 17:37:00,
2013-02-23 12:42:00,43.3,36.6,29.94,SSW,196,1.0,4.0,77,0.00,,---,0.00,VWS V13.01,2013-02-23 17:42:00,
2013-02-23 12:47:00,43.4,37.0,29.93,SSW,208,2.0,5.0,78,0.00,,---,0.00,VWS V13.01,2013-02-23 17:47:00,
2013-02-23 12:52:00,43.5,36.8,29.93,SSW,207,3.0,5.0,77,0.00,,---,0.00,VWS V13.01,2013-02-23 17:52:00,
2013-02-23 12:57:00,43.8,37.4,29.92,SW,236,1.0,5.0,78,0.00,,---,0.00,VWS V13.01,2013-02-23 17:57:00,
2013-02-23 13:02:00,44.3,37.6,29.92,SW,215,3.0,4.0,77,0.00,,---,0.00,VWS V13.01,2013-02-23 18:02:00,
2013-02-23 13:07:00,44.8,38.4,29.92,SSW,213,4.0,4.0,78,0.00,,---,0.00,VWS V13.01,2013-02-23 18:07:00,
2013-02-23 13:12:00,45.4,38.6,29.92,SW,214,1.0,5.0,77,0.00,,---,0.00,VWS V13.01,2013-02-23 18:12:00,
2013-02-23 13:17:00,45.7,38.6,29.92,SSW,211,3.0,7.0,76,0.00,,---,0.00,VWS V13.01,2013-02-23 18:17:00,
2013-02-23 13:22:00,45.7,38.6,29.92,SW,233,2.0,7.0,76,0.00,,---,0.00,VWS V13.01,2013-02-23 18:22:00,
2013-02-23 13:27:00,45.5,38.0,29.92,WSW,257,2.0,7.0,75,0.00,,---,0.00,VWS V13.01,2013-02-23 18:27:00,
2013-02-23 13:32:00,45.5,38.4,29.91,SW,227,4.0,7.0,76,0.00,,---,0.00,VWS V13.01,2013-02-23 18:32:00,
2013-02-23 13:37:00,45.6,38.8,29.91,SW,232,5.0,7.0,77,0.00,,---,0.00,VWS V13.01,2013-02-23 18:37:00,
2013-02-23 13:42:00,45.8,39.3,29.91,SW,227,6.0,9.0,78,0.00,,---,0.00,VWS V13.01,2013-02-23 18:42:00,
2013-02-23 13:47:00,46.3,39.5,29.91,WSW,245,4.0,10.0,77,0.00,,---,0.00,VWS V13.01,2013-02-23 18:47:00,
2013-02-23 13:52:00,46.7,39.5,29.91,SSW,211,3.0,10.0,76,0.00,,---,0.00,VWS V13.01,2013-02-23 18:52:00,
2013-02-23 13:57:00,46.8,39.3,29.91,WSW,253,7.0,10.0,75,0.00,,---,0.00,VWS V13.01,2013-02-23 18:57:00,
2013-02-23 14:02:00,46.7,39.2,29.91,SW,220,6.0,8.0,75,0.00,,---,0.00,VWS V13.01,2013-02-23 19:02:00,
2013-02-23 14:07:00,46.6,39.1,29.90,SW,217,6.0,9.0,75,0.00,,---,0.00,VWS V13.01,2013-02-23 19:07:00,
2013-02-23 14:12:00,46.7,39.2,29.90,SW,229,5.0,9.0,75,0.00,,---,0.00,VWS V13.01,2013-02-23 19:12:00,
2013-02-23 14:17:00,46.7,38.9,29.90,WNW,285,5.0,9.0,74,0.00,,---,0.00,VWS V13.01,2013-02-23 19:17:00,
2013-02-23 14:22:00,46.6,39.1,29.90,WSW,256,4.0,9.0,75,0.00,,---,0.00,VWS V13.01,2013-02-23 19:22:00,
2013-02-23 14:27:00,46.8,39.0,29.90,SSW,210,2.0,9.0,74,0.00,,---,0.00,VWS V13.01,2013-02-23 19:27:00,
2013-02-23 14:32:00,46.8,39.0,29.90,SW,234,4.0,6.0,74,0.00,,---,0.00,VWS V13.01,2013-02-23 19:32:00,
2013-02-23 14:37:00,46.7,38.9,29.89,WSW,242,4.0,7.0,74,0.00,,---,0.00,VWS V13.01,2013-02-23 19:37:00,
2013-02-23 14:42:00,47.1,39.2,29.89,SW,216,4.0,7.0,74,0.00,,---,0.00,VWS V13.01,2013-02-23 19:42:00,
2013-02-23 14:47:00,47.1,38.9,29.89,West,262,4.0,7.0,73,0.00,,---,0.00,VWS V13.01,2013-02-23 19:47:00,
2013-02-23 14:52:00,47.2,39.0,29.88,SW,224,5.0,7.0,73,0.00,,---,0.00,VWS V13.01,2013-02-23 19:52:00,
2013-02-23 14:57:00,47.1,37.8,29.88,SW,221,6.0,10.0,70,0.00,,---,0.00,VWS V13.01,2013-02-23 19:57:00,
2013-02-23 15:02:00,46.9,38.0,29.88,WSW,238,6.0,6.0,71,0.00,,---,0.00,VWS V13.01,2013-02-23 20:02:00,
2013-02-23 15:07:00,46.9,38.0,29.87,SW,219,3.0,12.0,71,0.00,,---,0.00,VWS V13.01,2013-02-23 20:07:00,
2013-02-23 15:12:00,47.0,38.1,29.87,SSW,206,1.0,12.0,71,0.00,,---,0.00,VWS V13.01,2013-02-23 20:12:00,
2013-02-23 15:17:00,47.3,38.4,29.87,West,280,2.0,12.0,71,0.00,,---,0.00,VWS V13.01,2013-02-23 20:17:00,
2013-02-23 15:22:00,47.7,38.4,29.87,West,259,1.0,12.0,70,0.00,,---,0.00,VWS V13.01,2013-02-23 20:22:00,
2013-02-23 15:27:00,47.6,37.6,29.87,WSW,249,3.0,12.0,68,0.00,,---,0.00,VWS V13.01,2013-02-23 20:27:00,
2013-02-23 15:32:00,47.4,37.8,29.87,WSW,257,5.0,7.0,69,0.00,,---,0.00,VWS V13.01,2013-02-23 20:32:00,
2013-02-23 15:37:00,47.2,37.6,29.87,WNW,290,2.0,9.0,69,0.00,,---,0.00,VWS V13.01,2013-02-23 20:37:00,
2013-02-23 15:42:00,47.1,37.8,29.87,WSW,252,7.0,9.0,70,0.00,,---,0.00,VWS V13.01,2013-02-23 20:42:00,
2013-02-23 15:47:00,46.9,37.6,29.87,WSW,241,1.0,9.0,70,0.00,,---,0.00,VWS V13.01,2013-02-23 20:47:00,
2013-02-23 15:52:00,46.7,37.5,29.88,West,267,3.0,9.0,70,0.00,,---,0.00,VWS V13.01,2013-02-23 20:52:00,
2013-02-23 15:57:00,46.6,37.7,29.88,WSW,258,3.0,9.0,71,0.00,,---,0.00,VWS V13.01,2013-02-23 20:57:00,
2013-02-23 16:02:00,46.5,37.6,29.88,WSW,243,3.0,9.0,71,0.00,,---,0.00,VWS V13.01,2013-02-23 21:02:00,
2013-02-23 16:07:00,46.4,37.5,29.88,SSW,209,4.0,9.0,71,0.00,,---,0.00,VWS V13.01,2013-02-23 21:07:00,
2013-02-23 16:12:00,46.3,37.4,29.88,WNW,286,3.0,9.0,71,0.00,,---,0.00,VWS V13.01,2013-02-23 21:12:00,
2013-02-23 16:17:00,46.2,37.7,29.88,West,277,2.0,9.0,72,0.00,,---,0.00,VWS V13.01,2013-02-23 21:17:00,
2013-02-23 16:22:00,46.1,37.6,29.88,West,275,3.0,9.0,72,0.00,,---,0.00,VWS V13.01,2013-02-23 21:22:00,
2013-02-23 16:27:00,45.9,37.8,29.88,NW,313,4.0,9.0,73,0.00,,---,0.00,VWS V13.01,2013-02-23 21:27:00,
2013-02-23 16:32:00,45.7,37.5,29.88,NNW,331,5.0,7.0,73,0.00,,---,0.00,VWS V13.01,2013-02-23 21:32:00,
2013-02-23 16:37:00,45.5,37.4,29.88,NNW,348,3.0,7.0,73,0.00,,---,0.00,VWS V13.01,2013-02-23 21:37:00,
2013-02-23 16:42:00,45.4,37.6,29.88,West,275,0.0,7.0,74,0.00,,---,0.00,VWS V13.01,2013-02-23 21:42:00,
2013-02-23 16:47:00,45.4,37.6,29.88,NNW,331,0.0,7.0,74,0.00,,---,0.00,VWS V13.01,2013-02-23 21:47:00,
2013-02-23 16:52:00,45.2,37.4,29.88,NW,324,1.0,7.0,74,0.00,,---,0.00,VWS V13.01,2013-02-23 21:52:00,
2013-02-23 16:57:00,45.0,37.2,29.88,WNW,295,0.0,7.0,74,0.00,,---,0.00,VWS V13.01,2013-02-23 21:57:00,
2013-02-23 17:02:00,44.9,37.1,29.88,WNW,300,4.0,5.0,74,0.00,,---,0.00,VWS V13.01,2013-02-23 22:02:00,
2013-02-23 17:07:00,44.7,36.9,29.89,NW,321,1.0,5.0,74,0.00,,---,0.00,VWS V13.01,2013-02-23 22:07:00,
2013-02-23 17:12:00,44.6,36.8,29.88,NW,321,1.0,5.0,74,0.00,,---,0.00,VWS V13.01,2013-02-23 22:12:00,
2013-02-23 17:17:00,44.5,36.7,29.88,NNW,340,2.0,6.0,74,0.00,,---,0.00,VWS V13.01,2013-02-23 22:17:00,
2013-02-23 17:22:00,44.3,36.5,29.88,NNW,327,4.0,6.0,74,0.00,,---,0.00,VWS V13.01,2013-02-23 22:22:00,
2013-02-23 17:27:00,44.2,36.8,29.88,WNW,295,3.0,6.0,75,0.00,,---,0.00,VWS V13.01,2013-02-23 22:27:00,
2013-02-23 17:32:00,44.1,36.7,29.88,NW,323,0.0,5.0,75,0.00,,---,0.00,VWS V13.01,2013-02-23 22:32:00,
2013-02-23 17:37:00,44.1,36.7,29.87,NNW,328,0.0,5.0,75,0.00,,---,0.00,VWS V13.01,2013-02-23 22:37:00,
2013-02-23 17:42:00,44.0,36.6,29.87,NW,319,2.0,5.0,75,0.00,,---,0.00,VWS V13.01,2013-02-23 22:42:00,
2013-02-23 17:47:00,43.8,36.4,29.87,NW,313,2.0,5.0,75,0.00,,---,0.00,VWS V13.01,2013-02-23 22:47:00,
2013-02-23 17:52:00,43.6,36.2,29.88,NW,308,2.0,5.0,75,0.00,,---,0.00,VWS V13.01,2013-02-23 22:52:00,
2013-02-23 17:57:00,43.5,36.1,29.88,WNW,294,4.0,5.0,75,0.00,,---,0.00,VWS V13.01,2013-02-23 22:57:00,
2013-02-23 18:02:00,43.3,35.9,29.87,NW,324,2.0,4.0,75,0.00,,---,0.00,VWS V13.01,2013-02-23 23:02:00,
2013-02-23 18:07:00,43.1,35.7,29.88,WNW,294,1.0,5.0,75,0.00,,---,0.00,VWS V13.01,2013-02-23 23:07:00,
2013-02-23 18:12:00,42.8,35.8,29.87,WNW,292,1.0,5.0,76,0.00,,---,0.00,VWS V13.01,2013-02-23 23:12:00,
2013-02-23 18:17:00,42.5,35.5,29.87,WNW,294,0.0,5.0,76,0.00,,---,0.00,VWS V13.01,2013-02-23 23:17:00,
2013-02-23 18:22:00,42.2,35.5,29.88,WNW,294,0.0,5.0,77,0.00,,---,0.00,VWS V13.01,2013-02-23 23:22:00,
2013-02-23 18:27:00,41.9,35.5,29.88,WNW,299,1.0,5.0,78,0.00,,---,0.00,VWS V13.01,2013-02-23 23:27:00,
2013-02-23 18:32:00,41.6,35.3,29.88,NW,313,1.0,3.0,78,0.00,,---,0.00,VWS V13.01,2013-02-23 23:32:00,
2013-02-23 18:37:00,41.3,35.0,29.88,NNW,331,0.0,3.0,78,0.00,,---,0.00,VWS V13.01,2013-02-23 23:37:00,
2013-02-23 18:42:00,41.1,35.1,29.88,NNW,331,0.0,3.0,79,0.00,,---,0.00,VWS V13.01,2013-02-23 23:42:00,
2013-02-23 18:47:00,40.8,34.8,29.88,NNW,331,0.0,3.0,79,0.00,,---,0.00,VWS V13.01,2013-02-23 23:47:00,
2013-02-23 18:52:00,40.4,34.4,29.89,NNW,340,0.0,3.0,79,0.00,,---,0.00,VWS V13.01,2013-02-23 23:52:00,
2013-02-23 18:57:00,40.1,34.4,29.89,NNW,340,0.0,3.0,80,0.00,,---,0.00,VWS V13.01,2013-02-23 23:57:00,
2013-02-23 19:02:00,39.7,34.0,29.89,NNW,340,0.0,1.0,80,0.00,,---,0.00,VWS V13.01,2013-02-24 00:02:00,
2013-02-23 19:07:00,39.5,34.2,29.89,NW,322,0.0,3.0,81,0.00,,---,0.00,VWS V13.01,2013-02-24 00:07:00,
2013-02-23 19:12:00,39.3,34.0,29.89,NW,322,0.0,3.0,81,0.00,,---,0.00,VWS V13.01,2013-02-24 00:12:00,
2013-02-23 19:17:00,39.1,33.8,29.90,NW,322,0.0,3.0,81,0.00,,---,0.00,VWS V13.01,2013-02-24 00:17:00,
2013-02-23 19:22:00,38.8,33.8,29.89,NW,322,0.0,3.0,82,0.00,,---,0.00,VWS V13.01,2013-02-24 00:22:00,
2013-02-23 19:27:00,38.7,34.0,29.89,NW,322,1.0,3.0,83,0.00,,---,0.00,VWS V13.01,2013-02-24 00:27:00,
2013-02-23 19:32:00,38.6,33.9,29.90,NW,322,0.0,0.0,83,0.00,,---,0.00,VWS V13.01,2013-02-24 00:32:00,
2013-02-23 19:37:00,38.6,33.9,29.89,NW,322,0.0,0.0,83,0.00,,---,0.00,VWS V13.01,2013-02-24 00:37:00,
2013-02-23 19:42:00,38.4,33.4,29.89,NW,322,0.0,0.0,82,0.00,,---,0.00,VWS V13.01,2013-02-24 00:42:00,
2013-02-23 19:47:00,38.1,33.1,29.89,NW,322,0.0,0.0,82,0.00,,---,0.00,VWS V13.01,2013-02-24 00:47:00,
2013-02-23 19:52:00,37.8,33.1,29.89,NW,322,1.0,1.0,83,0.00,,---,0.00,VWS V13.01,2013-02-24 00:52:00,
2013-02-23 19:57:00,37.4,32.7,29.88,NW,322,0.0,1.0,83,0.00,,---,0.00,VWS V13.01,2013-02-24 00:57:00,
2013-02-23 20:02:00,37.0,32.6,29.88,NW,322,0.0,0.0,84,0.00,,---,0.00,VWS V13.01,2013-02-24 01:02:00,
2013-02-23 20:07:00,36.6,32.5,29.88,NW,322,0.0,0.0,85,0.00,,---,0.00,VWS V13.01,2013-02-24 01:07:00,
2013-02-23 20:12:00,36.5,32.4,29.88,NW,322,0.0,0.0,85,0.00,,---,0.00,VWS V13.01,2013-02-24 01:12:00,
2013-02-23 20:17:00,36.4,32.6,29.87,NW,322,0.0,0.0,86,0.00,,---,0.00,VWS V13.01,2013-02-24 01:17:00,
2013-02-23 20:22:00,36.2,32.4,29.87,NW,322,0.0,0.0,86,0.00,,---,0.00,VWS V13.01,2013-02-24 01:22:00,
2013-02-23 20:28:00,36.1,32.3,29.87,NW,322,0.0,0.0,86,0.00,,---,0.00,VWS V13.01,2013-02-24 01:28:00,
2013-02-23 20:33:00,35.9,32.1,29.88,NW,322,0.0,1.0,86,0.00,,---,0.00,VWS V13.01,2013-02-24 01:33:00,
2013-02-23 20:38:00,35.7,32.2,29.88,NW,322,0.0,1.0,87,0.00,,---,0.00,VWS V13.01,2013-02-24 01:38:00,
2013-02-23 20:43:00,35.5,32.0,29.87,NW,322,0.0,1.0,87,0.00,,---,0.00,VWS V13.01,2013-02-24 01:43:00,
2013-02-23 20:48:00,35.4,31.9,29.88,NW,322,0.0,1.0,87,0.00,,---,0.00,VWS V13.01,2013-02-24 01:48:00,
2013-02-23 20:53:00,35.2,31.7,29.88,NW,322,0.0,1.0,87,0.00,,---,0.00,VWS V13.01,2013-02-24 01:53:00,
2013-02-23 20:58:00,35.1,31.9,29.88,NW,322,0.0,1.0,88,0.00,,---,0.00,VWS V13.01,2013-02-24 01:58:00,
2013-02-23 21:03:00,35.0,31.8,29.88,NW,322,0.0,0.0,88,0.00,,---,0.00,VWS V13.01,2013-02-24 02:03:00,
2013-02-23 21:08:00,35.0,31.8,29.88,NW,322,0.0,0.0,88,0.00,,---,0.00,VWS V13.01,2013-02-24 02:08:00,
2013-02-23 21:13:00,35.0,32.1,29.88,NW,322,0.0,0.0,89,0.00,,---,0.00,VWS V13.01,2013-02-24 02:13:00,
2013-02-23 21:18:00,34.9,32.0,29.88,NW,322,0.0,0.0,89,0.00,,---,0.00,VWS V13.01,2013-02-24 02:18:00,
2013-02-23 21:23:00,34.8,31.9,29.88,NW,322,0.0,0.0,89,0.00,,---,0.00,VWS V13.01,2013-02-24 02:23:00,
2013-02-23 21:28:00,34.8,31.9,29.88,NW,322,0.0,0.0,89,0.00,,---,0.00,VWS V13.01,2013-02-24 02:28:00,
2013-02-23 21:33:00,34.8,31.9,29.89,NW,322,0.0,0.0,89,0.00,,---,0.00,VWS V13.01,2013-02-24 02:33:00,
2013-02-23 21:38:00,34.8,31.9,29.88,NW,322,0.0,0.0,89,0.00,,---,0.00,VWS V13.01,2013-02-24 02:38:00,
2013-02-23 21:43:00,34.8,31.9,29.88,NW,322,0.0,0.0,89,0.00,,---,0.00,VWS V13.01,2013-02-24 02:43:00,
2013-02-23 21:48:00,34.8,31.9,29.88,NW,322,0.0,0.0,89,0.00,,---,0.00,VWS V13.01,2013-02-24 02:48:00,
2013-02-23 21:53:00,34.8,32.2,29.88,NW,322,0.0,0.0,90,0.00,,---,0.00,VWS V13.01,2013-02-24 02:53:00,
2013-02-23 21:58:00,34.8,32.2,29.88,NW,322,0.0,0.0,90,0.00,,---,0.00,VWS V13.01,2013-02-24 02:58:00,
2013-02-23 22:03:00,34.8,32.2,29.88,NW,322,0.0,0.0,90,0.00,,---,0.00,VWS V13.01,2013-02-24 03:03:00,
2013-02-23 22:08:00,34.8,32.2,29.88,NW,322,0.0,0.0,90,0.00,,---,0.00,VWS V13.01,2013-02-24 03:08:00,
2013-02-23 22:13:00,34.8,32.2,29.88,NW,322,0.0,0.0,90,0.00,,---,0.00,VWS V13.01,2013-02-24 03:13:00,
2013-02-23 22:18:00,34.8,32.2,29.87,NW,322,0.0,0.0,90,0.00,,---,0.00,VWS V13.01,2013-02-24 03:18:00,
2013-02-23 22:23:00,34.7,32.1,29.87,NW,322,0.0,0.0,90,0.00,,---,0.00,VWS V13.01,2013-02-24 03:23:00,
2013-02-23 22:28:00,34.7,32.1,29.87,NW,322,0.0,0.0,90,0.00,,---,0.00,VWS V13.01,2013-02-24 03:28:00,
2013-02-23 22:33:00,34.7,32.1,29.87,NW,322,0.0,0.0,90,0.00,,---,0.00,VWS V13.01,2013-02-24 03:33:00,
2013-02-23 22:38:00,34.8,32.2,29.87,NW,322,0.0,0.0,90,0.00,,---,0.00,VWS V13.01,2013-02-24 03:38:00,
2013-02-23 22:43:00,34.9,32.3,29.87,NW,322,0.0,0.0,90,0.00,,---,0.00,VWS V13.01,2013-02-24 03:43:00,
2013-02-23 22:48:00,35.0,32.4,29.87,NW,322,0.0,0.0,90,0.00,,---,0.00,VWS V13.01,2013-02-24 03:48:00,
2013-02-23 22:53:00,35.0,32.4,29.87,NW,322,0.0,0.0,90,0.00,,---,0.00,VWS V13.01,2013-02-24 03:53:00,
2013-02-23 22:58:00,35.1,32.5,29.87,NW,322,0.0,0.0,90,0.00,,---,0.00,VWS V13.01,2013-02-24 03:58:00,
2013-02-23 23:03:00,35.1,32.5,29.87,NW,322,0.0,0.0,90,0.00,,---,0.00,VWS V13.01,2013-02-24 04:03:00,
2013-02-23 23:08:00,35.1,32.5,29.87,NW,322,0.0,0.0,90,0.00,,---,0.00,VWS V13.01,2013-02-24 04:08:00,
2013-02-23 23:13:00,35.2,32.6,29.87,NW,322,1.0,1.0,90,0.00,,---,0.00,VWS V13.01,2013-02-24 04:13:00,
2013-02-23 23:18:00,35.2,32.6,29.87,NNW,342,1.0,3.0,90,0.00,,---,0.00,VWS V13.01,2013-02-24 04:18:00,
2013-02-23 23:23:00,35.3,32.7,29.87,NNW,348,0.0,3.0,90,0.00,,---,0.00,VWS V13.01,2013-02-24 04:23:00,
2013-02-23 23:28:00,35.3,32.7,29.87,NNW,348,0.0,3.0,90,0.00,,---,0.00,VWS V13.01,2013-02-24 04:28:00,
2013-02-23 23:33:00,35.3,32.7,29.87,NNW,343,0.0,0.0,90,0.00,,---,0.00,VWS V13.01,2013-02-24 04:33:00,
2013-02-23 23:38:00,35.4,32.8,29.87,NNW,340,0.0,3.0,90,0.00,,---,0.00,VWS V13.01,2013-02-24 04:38:00,
2013-02-23 23:43:00,35.5,32.9,29.87,NNW,338,0.0,4.0,90,0.00,,---,0.00,VWS V13.01,2013-02-24 04:43:00,
2013-02-23 23:48:00,35.5,32.9,29.87,NNW,338,3.0,4.0,90,0.00,,---,0.00,VWS V13.01,2013-02-24 04:48:00,
2013-02-23 23:53:00,35.5,32.6,29.87,NW,321,0.0,5.0,89,0.00,,---,0.00,VWS V13.01,2013-02-24 04:53:00,
2013-02-23 23:58:00,35.5,32.9,29.87,NW,321,0.0,5.0,90,0.00,,---,0.00,VWS V13.01,2013-02-24 04:58:00,